<?xml version="1.0" encoding="UTF-8" standalone="no" ?>
<gpx xmlns="http://www.topografix.com/GPX/1/1" xmlns:xsi="http://www.w3.org/2001/XMLSchema-instance" xsi:schemaLocation="http://www.topografix.com/GPX/1/1 http://www.topografix.com/GPX/1/1/gpx.xsd" version="1.1" creator="VisuGPX - https://www.visugpx.com">
  <metadata>
    <name>83 - V - TARADEAU : </name>
    <desc><![CDATA[grp_trc:]]></desc>
  </metadata>
  <trk>
    <name><![CDATA[Taradeau]]></name>
    <cmt><![CDATA[Oppidum ]]></cmt>
    <desc><![CDATA[comment ...]]></desc>
    <trkseg>
      <trkpt lat="43.45323" lon="6.43439">
        <ele>172</ele>
        <time>2022-09-30T12:26:17Z</time>
      </trkpt>
      <trkpt lat="43.45323" lon="6.43439">
        <ele>172</ele>
        <time>2022-09-30T12:26:18Z</time>
      </trkpt>
      <trkpt lat="43.45324" lon="6.43444">
        <ele>169</ele>
        <time>2022-09-30T12:26:32Z</time>
      </trkpt>
      <trkpt lat="43.45329" lon="6.43445">
        <ele>164</ele>
        <time>2022-09-30T12:27:07Z</time>
      </trkpt>
      <trkpt lat="43.45338" lon="6.43447">
        <ele>164</ele>
        <time>2022-09-30T12:27:32Z</time>
      </trkpt>
      <trkpt lat="43.45357" lon="6.4345">
        <ele>164</ele>
        <time>2022-09-30T12:27:49Z</time>
      </trkpt>
      <trkpt lat="43.45359" lon="6.43446">
        <ele>163</ele>
        <time>2022-09-30T12:28:09Z</time>
      </trkpt>
      <trkpt lat="43.45363" lon="6.43446">
        <ele>163</ele>
        <time>2022-09-30T12:28:25Z</time>
      </trkpt>
      <trkpt lat="43.45366" lon="6.43445">
        <ele>164</ele>
        <time>2022-09-30T12:28:28Z</time>
      </trkpt>
      <trkpt lat="43.4537" lon="6.43442">
        <ele>165</ele>
        <time>2022-09-30T12:28:32Z</time>
      </trkpt>
      <trkpt lat="43.45373" lon="6.43441">
        <ele>166</ele>
        <time>2022-09-30T12:28:36Z</time>
      </trkpt>
      <trkpt lat="43.45377" lon="6.43441">
        <ele>166</ele>
        <time>2022-09-30T12:28:40Z</time>
      </trkpt>
      <trkpt lat="43.4538" lon="6.4344">
        <ele>166</ele>
        <time>2022-09-30T12:28:43Z</time>
      </trkpt>
      <trkpt lat="43.45384" lon="6.4344">
        <ele>166</ele>
        <time>2022-09-30T12:28:47Z</time>
      </trkpt>
      <trkpt lat="43.45387" lon="6.43436">
        <ele>165</ele>
        <time>2022-09-30T12:28:51Z</time>
      </trkpt>
      <trkpt lat="43.4539" lon="6.43433">
        <ele>166</ele>
        <time>2022-09-30T12:28:55Z</time>
      </trkpt>
      <trkpt lat="43.45393" lon="6.4343">
        <ele>165</ele>
        <time>2022-09-30T12:29:00Z</time>
      </trkpt>
      <trkpt lat="43.45397" lon="6.43428">
        <ele>165</ele>
        <time>2022-09-30T12:29:05Z</time>
      </trkpt>
      <trkpt lat="43.45405" lon="6.43425">
        <ele>167</ele>
        <time>2022-09-30T12:29:15Z</time>
      </trkpt>
      <trkpt lat="43.45411" lon="6.4342">
        <ele>172</ele>
        <time>2022-09-30T12:29:25Z</time>
      </trkpt>
      <trkpt lat="43.45415" lon="6.43421">
        <ele>172</ele>
        <time>2022-09-30T12:29:32Z</time>
      </trkpt>
      <trkpt lat="43.45418" lon="6.43426">
        <ele>173</ele>
        <time>2022-09-30T12:29:48Z</time>
      </trkpt>
      <trkpt lat="43.45416" lon="6.43431">
        <ele>173</ele>
        <time>2022-09-30T12:29:56Z</time>
      </trkpt>
      <trkpt lat="43.45413" lon="6.43433">
        <ele>174</ele>
        <time>2022-09-30T12:30:01Z</time>
      </trkpt>
      <trkpt lat="43.4541" lon="6.43438">
        <ele>174</ele>
        <time>2022-09-30T12:30:06Z</time>
      </trkpt>
      <trkpt lat="43.45407" lon="6.43447">
        <ele>173</ele>
        <time>2022-09-30T12:30:16Z</time>
      </trkpt>
      <trkpt lat="43.45404" lon="6.43457">
        <ele>173</ele>
        <time>2022-09-30T12:30:25Z</time>
      </trkpt>
      <trkpt lat="43.45403" lon="6.43463">
        <ele>174</ele>
        <time>2022-09-30T12:30:31Z</time>
      </trkpt>
      <trkpt lat="43.45402" lon="6.43468">
        <ele>176</ele>
        <time>2022-09-30T12:30:40Z</time>
      </trkpt>
      <trkpt lat="43.45405" lon="6.43471">
        <ele>178</ele>
        <time>2022-09-30T12:30:49Z</time>
      </trkpt>
      <trkpt lat="43.45408" lon="6.43474">
        <ele>178</ele>
        <time>2022-09-30T12:30:58Z</time>
      </trkpt>
      <trkpt lat="43.45414" lon="6.43469">
        <ele>179</ele>
        <time>2022-09-30T12:31:09Z</time>
      </trkpt>
      <trkpt lat="43.45418" lon="6.43469">
        <ele>179</ele>
        <time>2022-09-30T12:31:14Z</time>
      </trkpt>
      <trkpt lat="43.45433" lon="6.43466">
        <ele>183</ele>
        <time>2022-09-30T12:31:35Z</time>
      </trkpt>
      <trkpt lat="43.45442" lon="6.43461">
        <ele>188</ele>
        <time>2022-09-30T12:31:51Z</time>
      </trkpt>
      <trkpt lat="43.45447" lon="6.4345">
        <ele>188</ele>
        <time>2022-09-30T12:32:00Z</time>
      </trkpt>
      <trkpt lat="43.45452" lon="6.4344">
        <ele>188</ele>
        <time>2022-09-30T12:32:09Z</time>
      </trkpt>
      <trkpt lat="43.45459" lon="6.43432">
        <ele>189</ele>
        <time>2022-09-30T12:32:20Z</time>
      </trkpt>
      <trkpt lat="43.45468" lon="6.43433">
        <ele>192</ele>
        <time>2022-09-30T12:33:22Z</time>
      </trkpt>
      <trkpt lat="43.45486" lon="6.43438">
        <ele>195</ele>
        <time>2022-09-30T12:33:50Z</time>
      </trkpt>
      <trkpt lat="43.4548" lon="6.43447">
        <ele>198</ele>
        <time>2022-09-30T12:34:15Z</time>
      </trkpt>
      <trkpt lat="43.45487" lon="6.43455">
        <ele>203</ele>
        <time>2022-09-30T12:34:37Z</time>
      </trkpt>
      <trkpt lat="43.45495" lon="6.43463">
        <ele>205</ele>
        <time>2022-09-30T12:35:06Z</time>
      </trkpt>
      <trkpt lat="43.45501" lon="6.43465">
        <ele>210</ele>
        <time>2022-09-30T12:36:10Z</time>
      </trkpt>
      <trkpt lat="43.455" lon="6.4347">
        <ele>211</ele>
        <time>2022-09-30T12:36:18Z</time>
      </trkpt>
      <trkpt lat="43.45503" lon="6.43472">
        <ele>211</ele>
        <time>2022-09-30T12:36:25Z</time>
      </trkpt>
      <trkpt lat="43.45507" lon="6.43474">
        <ele>210</ele>
        <time>2022-09-30T12:36:32Z</time>
      </trkpt>
      <trkpt lat="43.4551" lon="6.43476">
        <ele>208</ele>
        <time>2022-09-30T12:36:38Z</time>
      </trkpt>
      <trkpt lat="43.45512" lon="6.43481">
        <ele>210</ele>
        <time>2022-09-30T12:36:46Z</time>
      </trkpt>
      <trkpt lat="43.45516" lon="6.4348">
        <ele>213</ele>
        <time>2022-09-30T12:36:54Z</time>
      </trkpt>
      <trkpt lat="43.45519" lon="6.43479">
        <ele>214</ele>
        <time>2022-09-30T12:37:00Z</time>
      </trkpt>
      <trkpt lat="43.45522" lon="6.43482">
        <ele>217</ele>
        <time>2022-09-30T12:38:51Z</time>
      </trkpt>
      <trkpt lat="43.45526" lon="6.43482">
        <ele>217</ele>
        <time>2022-09-30T12:38:57Z</time>
      </trkpt>
      <trkpt lat="43.45529" lon="6.43485">
        <ele>216</ele>
        <time>2022-09-30T12:39:03Z</time>
      </trkpt>
      <trkpt lat="43.45532" lon="6.43489">
        <ele>217</ele>
        <time>2022-09-30T12:39:08Z</time>
      </trkpt>
      <trkpt lat="43.45535" lon="6.43491">
        <ele>218</ele>
        <time>2022-09-30T12:39:15Z</time>
      </trkpt>
      <trkpt lat="43.45535" lon="6.43496">
        <ele>219</ele>
        <time>2022-09-30T12:39:24Z</time>
      </trkpt>
      <trkpt lat="43.45529" lon="6.435">
        <ele>227</ele>
        <time>2022-09-30T12:39:50Z</time>
      </trkpt>
      <trkpt lat="43.45529" lon="6.43505">
        <ele>227</ele>
        <time>2022-09-30T12:40:00Z</time>
      </trkpt>
      <trkpt lat="43.4553" lon="6.43509">
        <ele>228</ele>
        <time>2022-09-30T12:40:05Z</time>
      </trkpt>
      <trkpt lat="43.4553" lon="6.43514">
        <ele>228</ele>
        <time>2022-09-30T12:40:14Z</time>
      </trkpt>
      <trkpt lat="43.45531" lon="6.43518">
        <ele>229</ele>
        <time>2022-09-30T12:40:20Z</time>
      </trkpt>
      <trkpt lat="43.45536" lon="6.43527">
        <ele>228</ele>
        <time>2022-09-30T12:40:43Z</time>
      </trkpt>
      <trkpt lat="43.45539" lon="6.43528">
        <ele>228</ele>
        <time>2022-09-30T12:40:48Z</time>
      </trkpt>
      <trkpt lat="43.45547" lon="6.43528">
        <ele>225</ele>
        <time>2022-09-30T12:41:03Z</time>
      </trkpt>
      <trkpt lat="43.4555" lon="6.43529">
        <ele>224</ele>
        <time>2022-09-30T12:41:09Z</time>
      </trkpt>
      <trkpt lat="43.45556" lon="6.43535">
        <ele>226</ele>
        <time>2022-09-30T12:41:20Z</time>
      </trkpt>
      <trkpt lat="43.45558" lon="6.43539">
        <ele>229</ele>
        <time>2022-09-30T12:41:26Z</time>
      </trkpt>
      <trkpt lat="43.45564" lon="6.43553">
        <ele>232</ele>
        <time>2022-09-30T12:41:46Z</time>
      </trkpt>
      <trkpt lat="43.45566" lon="6.43557">
        <ele>233</ele>
        <time>2022-09-30T12:41:53Z</time>
      </trkpt>
      <trkpt lat="43.45575" lon="6.43574">
        <ele>232</ele>
        <time>2022-09-30T12:42:11Z</time>
      </trkpt>
      <trkpt lat="43.45578" lon="6.43577">
        <ele>232</ele>
        <time>2022-09-30T12:42:16Z</time>
      </trkpt>
      <trkpt lat="43.45586" lon="6.43601">
        <ele>234</ele>
        <time>2022-09-30T12:42:46Z</time>
      </trkpt>
      <trkpt lat="43.45592" lon="6.43619">
        <ele>237</ele>
        <time>2022-09-30T12:43:06Z</time>
      </trkpt>
      <trkpt lat="43.45592" lon="6.43624">
        <ele>237</ele>
        <time>2022-09-30T12:43:11Z</time>
      </trkpt>
      <trkpt lat="43.45592" lon="6.43629">
        <ele>239</ele>
        <time>2022-09-30T12:43:16Z</time>
      </trkpt>
      <trkpt lat="43.4559" lon="6.43633">
        <ele>239</ele>
        <time>2022-09-30T12:43:21Z</time>
      </trkpt>
      <trkpt lat="43.45588" lon="6.43643">
        <ele>242</ele>
        <time>2022-09-30T12:43:32Z</time>
      </trkpt>
      <trkpt lat="43.45588" lon="6.43648">
        <ele>242</ele>
        <time>2022-09-30T12:43:37Z</time>
      </trkpt>
      <trkpt lat="43.45584" lon="6.43659">
        <ele>246</ele>
        <time>2022-09-30T12:49:49Z</time>
      </trkpt>
      <trkpt lat="43.45582" lon="6.43672">
        <ele>249</ele>
        <time>2022-09-30T12:50:07Z</time>
      </trkpt>
      <trkpt lat="43.45579" lon="6.43681">
        <ele>251</ele>
        <time>2022-09-30T12:50:19Z</time>
      </trkpt>
      <trkpt lat="43.45579" lon="6.43686">
        <ele>249</ele>
        <time>2022-09-30T12:50:26Z</time>
      </trkpt>
      <trkpt lat="43.45576" lon="6.43698">
        <ele>249</ele>
        <time>2022-09-30T12:52:11Z</time>
      </trkpt>
      <trkpt lat="43.45572" lon="6.43699">
        <ele>250</ele>
        <time>2022-09-30T12:52:18Z</time>
      </trkpt>
      <trkpt lat="43.45569" lon="6.437">
        <ele>251</ele>
        <time>2022-09-30T12:52:24Z</time>
      </trkpt>
      <trkpt lat="43.45562" lon="6.437">
        <ele>250</ele>
        <time>2022-09-30T12:52:36Z</time>
      </trkpt>
      <trkpt lat="43.45558" lon="6.43699">
        <ele>250</ele>
        <time>2022-09-30T12:52:42Z</time>
      </trkpt>
      <trkpt lat="43.45555" lon="6.43697">
        <ele>250</ele>
        <time>2022-09-30T12:52:48Z</time>
      </trkpt>
      <trkpt lat="43.45552" lon="6.43693">
        <ele>250</ele>
        <time>2022-09-30T12:52:53Z</time>
      </trkpt>
      <trkpt lat="43.4555" lon="6.4369">
        <ele>248</ele>
        <time>2022-09-30T12:53:10Z</time>
      </trkpt>
      <trkpt lat="43.45548" lon="6.43686">
        <ele>247</ele>
        <time>2022-09-30T12:53:16Z</time>
      </trkpt>
      <trkpt lat="43.45544" lon="6.43685">
        <ele>248</ele>
        <time>2022-09-30T12:53:21Z</time>
      </trkpt>
      <trkpt lat="43.45538" lon="6.43682">
        <ele>249</ele>
        <time>2022-09-30T12:53:32Z</time>
      </trkpt>
      <trkpt lat="43.45538" lon="6.43682">
        <ele>244</ele>
        <time>2022-09-30T12:54:59Z</time>
      </trkpt>
      <trkpt lat="43.45542" lon="6.43683">
        <ele>244</ele>
        <time>2022-09-30T12:55:04Z</time>
      </trkpt>
      <trkpt lat="43.4554" lon="6.43685">
        <ele>249</ele>
        <time>2022-09-30T13:00:44Z</time>
      </trkpt>
      <trkpt lat="43.45537" lon="6.43683">
        <ele>249</ele>
        <time>2022-09-30T13:00:54Z</time>
      </trkpt>
      <trkpt lat="43.45533" lon="6.43683">
        <ele>247</ele>
        <time>2022-09-30T13:02:53Z</time>
      </trkpt>
      <trkpt lat="43.45535" lon="6.43679">
        <ele>246</ele>
        <time>2022-09-30T13:17:16Z</time>
      </trkpt>
      <trkpt lat="43.45535" lon="6.43674">
        <ele>246</ele>
        <time>2022-09-30T13:17:27Z</time>
      </trkpt>
      <trkpt lat="43.45538" lon="6.43671">
        <ele>247</ele>
        <time>2022-09-30T13:19:22Z</time>
      </trkpt>
      <trkpt lat="43.45542" lon="6.43671">
        <ele>247</ele>
        <time>2022-09-30T13:19:58Z</time>
      </trkpt>
      <trkpt lat="43.45546" lon="6.4367">
        <ele>248</ele>
        <time>2022-09-30T13:20:19Z</time>
      </trkpt>
      <trkpt lat="43.45548" lon="6.43667">
        <ele>247</ele>
        <time>2022-09-30T13:20:24Z</time>
      </trkpt>
      <trkpt lat="43.45552" lon="6.43669">
        <ele>248</ele>
        <time>2022-09-30T13:20:28Z</time>
      </trkpt>
      <trkpt lat="43.45562" lon="6.43676">
        <ele>249</ele>
        <time>2022-09-30T13:24:03Z</time>
      </trkpt>
      <trkpt lat="43.45565" lon="6.43678">
        <ele>250</ele>
        <time>2022-09-30T13:24:39Z</time>
      </trkpt>
      <trkpt lat="43.45566" lon="6.43674">
        <ele>249</ele>
        <time>2022-09-30T13:24:44Z</time>
      </trkpt>
      <trkpt lat="43.45569" lon="6.43671">
        <ele>249</ele>
        <time>2022-09-30T13:24:48Z</time>
      </trkpt>
      <trkpt lat="43.45567" lon="6.43667">
        <ele>246</ele>
        <time>2022-09-30T13:30:13Z</time>
      </trkpt>
      <trkpt lat="43.45567" lon="6.43661">
        <ele>245</ele>
        <time>2022-09-30T13:30:21Z</time>
      </trkpt>
      <trkpt lat="43.45569" lon="6.43657">
        <ele>244</ele>
        <time>2022-09-30T13:30:26Z</time>
      </trkpt>
      <trkpt lat="43.45571" lon="6.43653">
        <ele>244</ele>
        <time>2022-09-30T13:30:38Z</time>
      </trkpt>
      <trkpt lat="43.45572" lon="6.43648">
        <ele>243</ele>
        <time>2022-09-30T13:31:53Z</time>
      </trkpt>
      <trkpt lat="43.45576" lon="6.43648">
        <ele>242</ele>
        <time>2022-09-30T13:31:56Z</time>
      </trkpt>
      <trkpt lat="43.45576" lon="6.43642">
        <ele>242</ele>
        <time>2022-09-30T13:32:03Z</time>
      </trkpt>
      <trkpt lat="43.45575" lon="6.43638">
        <ele>241</ele>
        <time>2022-09-30T13:32:09Z</time>
      </trkpt>
      <trkpt lat="43.45574" lon="6.43627">
        <ele>241</ele>
        <time>2022-09-30T13:32:26Z</time>
      </trkpt>
      <trkpt lat="43.45569" lon="6.43618">
        <ele>242</ele>
        <time>2022-09-30T13:35:01Z</time>
      </trkpt>
      <trkpt lat="43.45568" lon="6.43614">
        <ele>241</ele>
        <time>2022-09-30T13:36:21Z</time>
      </trkpt>
      <trkpt lat="43.45569" lon="6.43609">
        <ele>242</ele>
        <time>2022-09-30T13:36:27Z</time>
      </trkpt>
      <trkpt lat="43.4557" lon="6.43605">
        <ele>243</ele>
        <time>2022-09-30T13:36:30Z</time>
      </trkpt>
      <trkpt lat="43.45568" lon="6.43601">
        <ele>244</ele>
        <time>2022-09-30T13:36:36Z</time>
      </trkpt>
      <trkpt lat="43.45562" lon="6.4359">
        <ele>244</ele>
        <time>2022-09-30T13:36:53Z</time>
      </trkpt>
      <trkpt lat="43.45555" lon="6.43588">
        <ele>244</ele>
        <time>2022-09-30T13:37:28Z</time>
      </trkpt>
      <trkpt lat="43.45552" lon="6.43586">
        <ele>243</ele>
        <time>2022-09-30T13:37:40Z</time>
      </trkpt>
      <trkpt lat="43.45548" lon="6.43584">
        <ele>242</ele>
        <time>2022-09-30T13:37:56Z</time>
      </trkpt>
      <trkpt lat="43.45545" lon="6.43582">
        <ele>243</ele>
        <time>2022-09-30T13:38:13Z</time>
      </trkpt>
      <trkpt lat="43.45542" lon="6.43579">
        <ele>243</ele>
        <time>2022-09-30T13:38:18Z</time>
      </trkpt>
      <trkpt lat="43.45541" lon="6.43574">
        <ele>241</ele>
        <time>2022-09-30T13:42:07Z</time>
      </trkpt>
      <trkpt lat="43.45538" lon="6.43572">
        <ele>239</ele>
        <time>2022-09-30T13:42:26Z</time>
      </trkpt>
      <trkpt lat="43.45531" lon="6.43569">
        <ele>239</ele>
        <time>2022-09-30T13:42:45Z</time>
      </trkpt>
      <trkpt lat="43.45527" lon="6.43569">
        <ele>240</ele>
        <time>2022-09-30T13:42:50Z</time>
      </trkpt>
      <trkpt lat="43.45524" lon="6.43568">
        <ele>241</ele>
        <time>2022-09-30T13:42:56Z</time>
      </trkpt>
      <trkpt lat="43.45517" lon="6.43573">
        <ele>240</ele>
        <time>2022-09-30T13:43:06Z</time>
      </trkpt>
      <trkpt lat="43.45514" lon="6.43573">
        <ele>241</ele>
        <time>2022-09-30T13:43:13Z</time>
      </trkpt>
      <trkpt lat="43.45511" lon="6.43577">
        <ele>241</ele>
        <time>2022-09-30T13:43:21Z</time>
      </trkpt>
      <trkpt lat="43.45508" lon="6.43577">
        <ele>242</ele>
        <time>2022-09-30T13:43:30Z</time>
      </trkpt>
      <trkpt lat="43.45504" lon="6.43576">
        <ele>241</ele>
        <time>2022-09-30T13:43:39Z</time>
      </trkpt>
      <trkpt lat="43.455" lon="6.43576">
        <ele>241</ele>
        <time>2022-09-30T13:43:46Z</time>
      </trkpt>
      <trkpt lat="43.45497" lon="6.43577">
        <ele>240</ele>
        <time>2022-09-30T13:43:53Z</time>
      </trkpt>
      <trkpt lat="43.45494" lon="6.43579">
        <ele>239</ele>
        <time>2022-09-30T13:49:58Z</time>
      </trkpt>
      <trkpt lat="43.45493" lon="6.43584">
        <ele>241</ele>
        <time>2022-09-30T13:50:04Z</time>
      </trkpt>
      <trkpt lat="43.45494" lon="6.43588">
        <ele>241</ele>
        <time>2022-09-30T13:50:08Z</time>
      </trkpt>
      <trkpt lat="43.45496" lon="6.43594">
        <ele>240</ele>
        <time>2022-09-30T13:50:13Z</time>
      </trkpt>
      <trkpt lat="43.45496" lon="6.4361">
        <ele>241</ele>
        <time>2022-09-30T13:50:31Z</time>
      </trkpt>
      <trkpt lat="43.45491" lon="6.43618">
        <ele>243</ele>
        <time>2022-09-30T13:50:46Z</time>
      </trkpt>
      <trkpt lat="43.45491" lon="6.43623">
        <ele>243</ele>
        <time>2022-09-30T13:50:50Z</time>
      </trkpt>
      <trkpt lat="43.45493" lon="6.43627">
        <ele>243</ele>
        <time>2022-09-30T13:50:58Z</time>
      </trkpt>
      <trkpt lat="43.45492" lon="6.43641">
        <ele>242</ele>
        <time>2022-09-30T13:51:13Z</time>
      </trkpt>
      <trkpt lat="43.45492" lon="6.43646">
        <ele>243</ele>
        <time>2022-09-30T13:51:19Z</time>
      </trkpt>
      <trkpt lat="43.45495" lon="6.4365">
        <ele>243</ele>
        <time>2022-09-30T13:51:25Z</time>
      </trkpt>
      <trkpt lat="43.45502" lon="6.43652">
        <ele>244</ele>
        <time>2022-09-30T13:51:39Z</time>
      </trkpt>
      <trkpt lat="43.45506" lon="6.43653">
        <ele>244</ele>
        <time>2022-09-30T13:51:45Z</time>
      </trkpt>
      <trkpt lat="43.45513" lon="6.43657">
        <ele>246</ele>
        <time>2022-09-30T13:51:55Z</time>
      </trkpt>
      <trkpt lat="43.45516" lon="6.43659">
        <ele>247</ele>
        <time>2022-09-30T13:51:59Z</time>
      </trkpt>
      <trkpt lat="43.45522" lon="6.43664">
        <ele>247</ele>
        <time>2022-09-30T13:52:07Z</time>
      </trkpt>
      <trkpt lat="43.45529" lon="6.43665">
        <ele>247</ele>
        <time>2022-09-30T13:52:14Z</time>
      </trkpt>
      <trkpt lat="43.45533" lon="6.43664">
        <ele>248</ele>
        <time>2022-09-30T13:52:18Z</time>
      </trkpt>
      <trkpt lat="43.45539" lon="6.43668">
        <ele>247</ele>
        <time>2022-09-30T13:52:37Z</time>
      </trkpt>
      <trkpt lat="43.4554" lon="6.43672">
        <ele>248</ele>
        <time>2022-09-30T13:52:46Z</time>
      </trkpt>
      <trkpt lat="43.4554" lon="6.43677">
        <ele>250</ele>
        <time>2022-09-30T13:52:59Z</time>
      </trkpt>
      <trkpt lat="43.45544" lon="6.43686">
        <ele>249</ele>
        <time>2022-09-30T13:53:21Z</time>
      </trkpt>
      <trkpt lat="43.45546" lon="6.43689">
        <ele>249</ele>
        <time>2022-09-30T13:53:28Z</time>
      </trkpt>
      <trkpt lat="43.45548" lon="6.43694">
        <ele>248</ele>
        <time>2022-09-30T13:53:36Z</time>
      </trkpt>
      <trkpt lat="43.45549" lon="6.43699">
        <ele>247</ele>
        <time>2022-09-30T13:54:43Z</time>
      </trkpt>
      <trkpt lat="43.4555" lon="6.43701">
        <ele>248</ele>
        <time>2022-09-30T14:01:26Z</time>
      </trkpt>
      <trkpt lat="43.45552" lon="6.43706">
        <ele>248</ele>
        <time>2022-09-30T14:01:31Z</time>
      </trkpt>
      <trkpt lat="43.45553" lon="6.43711">
        <ele>249</ele>
        <time>2022-09-30T14:01:38Z</time>
      </trkpt>
      <trkpt lat="43.45554" lon="6.43715">
        <ele>248</ele>
        <time>2022-09-30T14:01:42Z</time>
      </trkpt>
      <trkpt lat="43.45553" lon="6.4372">
        <ele>249</ele>
        <time>2022-09-30T14:02:16Z</time>
      </trkpt>
      <trkpt lat="43.45543" lon="6.43733">
        <ele>250</ele>
        <time>2022-09-30T14:02:34Z</time>
      </trkpt>
      <trkpt lat="43.4554" lon="6.43737">
        <ele>250</ele>
        <time>2022-09-30T14:02:41Z</time>
      </trkpt>
      <trkpt lat="43.45537" lon="6.4374">
        <ele>250</ele>
        <time>2022-09-30T14:02:48Z</time>
      </trkpt>
      <trkpt lat="43.45534" lon="6.43744">
        <ele>249</ele>
        <time>2022-09-30T14:03:31Z</time>
      </trkpt>
      <trkpt lat="43.45531" lon="6.43754">
        <ele>250</ele>
        <time>2022-09-30T14:03:39Z</time>
      </trkpt>
      <trkpt lat="43.45534" lon="6.43759">
        <ele>248</ele>
        <time>2022-09-30T14:03:44Z</time>
      </trkpt>
      <trkpt lat="43.45534" lon="6.43765">
        <ele>247</ele>
        <time>2022-09-30T14:03:49Z</time>
      </trkpt>
      <trkpt lat="43.4553" lon="6.43767">
        <ele>247</ele>
        <time>2022-09-30T14:03:54Z</time>
      </trkpt>
      <trkpt lat="43.45527" lon="6.43769">
        <ele>248</ele>
        <time>2022-09-30T14:03:58Z</time>
      </trkpt>
      <trkpt lat="43.45502" lon="6.43784">
        <ele>254</ele>
        <time>2022-09-30T14:04:26Z</time>
      </trkpt>
      <trkpt lat="43.45499" lon="6.43785">
        <ele>255</ele>
        <time>2022-09-30T14:04:31Z</time>
      </trkpt>
      <trkpt lat="43.45501" lon="6.4379">
        <ele>255</ele>
        <time>2022-09-30T14:04:43Z</time>
      </trkpt>
      <trkpt lat="43.45501" lon="6.43796">
        <ele>254</ele>
        <time>2022-09-30T14:04:49Z</time>
      </trkpt>
      <trkpt lat="43.45499" lon="6.438">
        <ele>256</ele>
        <time>2022-09-30T14:04:55Z</time>
      </trkpt>
      <trkpt lat="43.45497" lon="6.43804">
        <ele>256</ele>
        <time>2022-09-30T14:05:01Z</time>
      </trkpt>
      <trkpt lat="43.45493" lon="6.43818">
        <ele>255</ele>
        <time>2022-09-30T14:05:21Z</time>
      </trkpt>
      <trkpt lat="43.45488" lon="6.43826">
        <ele>256</ele>
        <time>2022-09-30T14:05:30Z</time>
      </trkpt>
      <trkpt lat="43.45484" lon="6.43829">
        <ele>256</ele>
        <time>2022-09-30T14:05:35Z</time>
      </trkpt>
      <trkpt lat="43.45481" lon="6.4383">
        <ele>256</ele>
        <time>2022-09-30T14:05:51Z</time>
      </trkpt>
      <trkpt lat="43.45481" lon="6.43832">
        <ele>257</ele>
        <time>2022-09-30T14:08:23Z</time>
      </trkpt>
      <trkpt lat="43.45489" lon="6.43833">
        <ele>254</ele>
        <time>2022-09-30T14:08:32Z</time>
      </trkpt>
      <trkpt lat="43.45491" lon="6.43828">
        <ele>254</ele>
        <time>2022-09-30T14:08:39Z</time>
      </trkpt>
      <trkpt lat="43.45493" lon="6.43823">
        <ele>253</ele>
        <time>2022-09-30T14:08:46Z</time>
      </trkpt>
      <trkpt lat="43.45497" lon="6.43815">
        <ele>251</ele>
        <time>2022-09-30T14:08:57Z</time>
      </trkpt>
      <trkpt lat="43.45498" lon="6.4381">
        <ele>251</ele>
        <time>2022-09-30T14:09:03Z</time>
      </trkpt>
      <trkpt lat="43.45498" lon="6.43805">
        <ele>252</ele>
        <time>2022-09-30T14:09:10Z</time>
      </trkpt>
      <trkpt lat="43.455" lon="6.43801">
        <ele>251</ele>
        <time>2022-09-30T14:09:16Z</time>
      </trkpt>
      <trkpt lat="43.45502" lon="6.43796">
        <ele>250</ele>
        <time>2022-09-30T14:09:22Z</time>
      </trkpt>
      <trkpt lat="43.45506" lon="6.43788">
        <ele>250</ele>
        <time>2022-09-30T14:09:35Z</time>
      </trkpt>
      <trkpt lat="43.45509" lon="6.43784">
        <ele>250</ele>
        <time>2022-09-30T14:09:42Z</time>
      </trkpt>
      <trkpt lat="43.45512" lon="6.4378">
        <ele>249</ele>
        <time>2022-09-30T14:09:48Z</time>
      </trkpt>
      <trkpt lat="43.45518" lon="6.43773">
        <ele>247</ele>
        <time>2022-09-30T14:10:00Z</time>
      </trkpt>
      <trkpt lat="43.45521" lon="6.43769">
        <ele>247</ele>
        <time>2022-09-30T14:10:07Z</time>
      </trkpt>
      <trkpt lat="43.45526" lon="6.43764">
        <ele>247</ele>
        <time>2022-09-30T14:10:20Z</time>
      </trkpt>
      <trkpt lat="43.45532" lon="6.43757">
        <ele>244</ele>
        <time>2022-09-30T14:10:55Z</time>
      </trkpt>
      <trkpt lat="43.45533" lon="6.43753">
        <ele>245</ele>
        <time>2022-09-30T14:10:59Z</time>
      </trkpt>
      <trkpt lat="43.45537" lon="6.43753">
        <ele>246</ele>
        <time>2022-09-30T14:11:04Z</time>
      </trkpt>
      <trkpt lat="43.45544" lon="6.43749">
        <ele>245</ele>
        <time>2022-09-30T14:11:17Z</time>
      </trkpt>
      <trkpt lat="43.45548" lon="6.43747">
        <ele>244</ele>
        <time>2022-09-30T14:11:24Z</time>
      </trkpt>
      <trkpt lat="43.45552" lon="6.43744">
        <ele>244</ele>
        <time>2022-09-30T14:11:30Z</time>
      </trkpt>
      <trkpt lat="43.45559" lon="6.4374">
        <ele>244</ele>
        <time>2022-09-30T14:11:42Z</time>
      </trkpt>
      <trkpt lat="43.45563" lon="6.43739">
        <ele>244</ele>
        <time>2022-09-30T14:11:48Z</time>
      </trkpt>
      <trkpt lat="43.45578" lon="6.43734">
        <ele>243</ele>
        <time>2022-09-30T14:12:10Z</time>
      </trkpt>
      <trkpt lat="43.45585" lon="6.43731">
        <ele>243</ele>
        <time>2022-09-30T14:12:22Z</time>
      </trkpt>
      <trkpt lat="43.4559" lon="6.4373">
        <ele>241</ele>
        <time>2022-09-30T14:12:30Z</time>
      </trkpt>
      <trkpt lat="43.45593" lon="6.43729">
        <ele>241</ele>
        <time>2022-09-30T14:12:36Z</time>
      </trkpt>
      <trkpt lat="43.45613" lon="6.43727">
        <ele>241</ele>
        <time>2022-09-30T14:13:09Z</time>
      </trkpt>
      <trkpt lat="43.45624" lon="6.43726">
        <ele>240</ele>
        <time>2022-09-30T14:13:28Z</time>
      </trkpt>
      <trkpt lat="43.45646" lon="6.43731">
        <ele>237</ele>
        <time>2022-09-30T14:14:01Z</time>
      </trkpt>
      <trkpt lat="43.4565" lon="6.43733">
        <ele>237</ele>
        <time>2022-09-30T14:14:07Z</time>
      </trkpt>
      <trkpt lat="43.45653" lon="6.43735">
        <ele>237</ele>
        <time>2022-09-30T14:14:14Z</time>
      </trkpt>
      <trkpt lat="43.45664" lon="6.43738">
        <ele>234</ele>
        <time>2022-09-30T14:14:32Z</time>
      </trkpt>
      <trkpt lat="43.45685" lon="6.43751">
        <ele>230</ele>
        <time>2022-09-30T14:15:04Z</time>
      </trkpt>
      <trkpt lat="43.45688" lon="6.43753">
        <ele>230</ele>
        <time>2022-09-30T14:15:09Z</time>
      </trkpt>
      <trkpt lat="43.45691" lon="6.43756">
        <ele>229</ele>
        <time>2022-09-30T14:15:14Z</time>
      </trkpt>
      <trkpt lat="43.45703" lon="6.43771">
        <ele>225</ele>
        <time>2022-09-30T14:15:34Z</time>
      </trkpt>
      <trkpt lat="43.45705" lon="6.43775">
        <ele>224</ele>
        <time>2022-09-30T14:15:40Z</time>
      </trkpt>
      <trkpt lat="43.45708" lon="6.43779">
        <ele>224</ele>
        <time>2022-09-30T14:15:45Z</time>
      </trkpt>
      <trkpt lat="43.45709" lon="6.43784">
        <ele>224</ele>
        <time>2022-09-30T14:15:50Z</time>
      </trkpt>
      <trkpt lat="43.45716" lon="6.43796">
        <ele>222</ele>
        <time>2022-09-30T14:16:09Z</time>
      </trkpt>
      <trkpt lat="43.45723" lon="6.43808">
        <ele>221</ele>
        <time>2022-09-30T14:16:25Z</time>
      </trkpt>
      <trkpt lat="43.45733" lon="6.43824">
        <ele>217</ele>
        <time>2022-09-30T14:16:46Z</time>
      </trkpt>
      <trkpt lat="43.45734" lon="6.43829">
        <ele>217</ele>
        <time>2022-09-30T14:16:50Z</time>
      </trkpt>
      <trkpt lat="43.45739" lon="6.43838">
        <ele>216</ele>
        <time>2022-09-30T14:17:00Z</time>
      </trkpt>
      <trkpt lat="43.45742" lon="6.43848">
        <ele>214</ele>
        <time>2022-09-30T14:17:10Z</time>
      </trkpt>
      <trkpt lat="43.45744" lon="6.43858">
        <ele>213</ele>
        <time>2022-09-30T14:17:19Z</time>
      </trkpt>
      <trkpt lat="43.45753" lon="6.43893">
        <ele>210</ele>
        <time>2022-09-30T14:17:51Z</time>
      </trkpt>
      <trkpt lat="43.45754" lon="6.43903">
        <ele>210</ele>
        <time>2022-09-30T14:18:00Z</time>
      </trkpt>
      <trkpt lat="43.45755" lon="6.43909">
        <ele>209</ele>
        <time>2022-09-30T14:18:05Z</time>
      </trkpt>
      <trkpt lat="43.45756" lon="6.4392">
        <ele>208</ele>
        <time>2022-09-30T14:18:16Z</time>
      </trkpt>
      <trkpt lat="43.45755" lon="6.4393">
        <ele>208</ele>
        <time>2022-09-30T14:18:25Z</time>
      </trkpt>
      <trkpt lat="43.45755" lon="6.4394">
        <ele>206</ele>
        <time>2022-09-30T14:18:34Z</time>
      </trkpt>
      <trkpt lat="43.45751" lon="6.43961">
        <ele>205</ele>
        <time>2022-09-30T14:18:53Z</time>
      </trkpt>
      <trkpt lat="43.45748" lon="6.43976">
        <ele>203</ele>
        <time>2022-09-30T14:19:07Z</time>
      </trkpt>
      <trkpt lat="43.45748" lon="6.43982">
        <ele>202</ele>
        <time>2022-09-30T14:19:12Z</time>
      </trkpt>
      <trkpt lat="43.45749" lon="6.43998">
        <ele>200</ele>
        <time>2022-09-30T14:19:26Z</time>
      </trkpt>
      <trkpt lat="43.45751" lon="6.44007">
        <ele>199</ele>
        <time>2022-09-30T14:19:36Z</time>
      </trkpt>
      <trkpt lat="43.45754" lon="6.44027">
        <ele>198</ele>
        <time>2022-09-30T14:19:56Z</time>
      </trkpt>
      <trkpt lat="43.45767" lon="6.44061">
        <ele>194</ele>
        <time>2022-09-30T14:20:27Z</time>
      </trkpt>
      <trkpt lat="43.45769" lon="6.44065">
        <ele>193</ele>
        <time>2022-09-30T14:20:32Z</time>
      </trkpt>
      <trkpt lat="43.45774" lon="6.44073">
        <ele>192</ele>
        <time>2022-09-30T14:20:40Z</time>
      </trkpt>
      <trkpt lat="43.45779" lon="6.44082">
        <ele>191</ele>
        <time>2022-09-30T14:20:48Z</time>
      </trkpt>
      <trkpt lat="43.45785" lon="6.44088">
        <ele>191</ele>
        <time>2022-09-30T14:20:57Z</time>
      </trkpt>
      <trkpt lat="43.45788" lon="6.44087">
        <ele>189</ele>
        <time>2022-09-30T14:21:02Z</time>
      </trkpt>
      <trkpt lat="43.45792" lon="6.4409">
        <ele>189</ele>
        <time>2022-09-30T14:21:06Z</time>
      </trkpt>
      <trkpt lat="43.45803" lon="6.44091">
        <ele>189</ele>
        <time>2022-09-30T14:21:20Z</time>
      </trkpt>
      <trkpt lat="43.45807" lon="6.44092">
        <ele>189</ele>
        <time>2022-09-30T14:21:25Z</time>
      </trkpt>
      <trkpt lat="43.45815" lon="6.44092">
        <ele>188</ele>
        <time>2022-09-30T14:21:34Z</time>
      </trkpt>
      <trkpt lat="43.45824" lon="6.44092">
        <ele>186</ele>
        <time>2022-09-30T14:21:46Z</time>
      </trkpt>
      <trkpt lat="43.45842" lon="6.44095">
        <ele>184</ele>
        <time>2022-09-30T14:22:08Z</time>
      </trkpt>
      <trkpt lat="43.45852" lon="6.44095">
        <ele>184</ele>
        <time>2022-09-30T14:22:20Z</time>
      </trkpt>
      <trkpt lat="43.45859" lon="6.44088">
        <ele>179</ele>
        <time>2022-09-30T14:22:34Z</time>
      </trkpt>
      <trkpt lat="43.45869" lon="6.44089">
        <ele>184</ele>
        <time>2022-09-30T14:22:47Z</time>
      </trkpt>
      <trkpt lat="43.45877" lon="6.44084">
        <ele>182</ele>
        <time>2022-09-30T14:22:59Z</time>
      </trkpt>
      <trkpt lat="43.45905" lon="6.44081">
        <ele>180</ele>
        <time>2022-09-30T14:23:33Z</time>
      </trkpt>
      <trkpt lat="43.45924" lon="6.44074">
        <ele>181</ele>
        <time>2022-09-30T14:23:53Z</time>
      </trkpt>
      <trkpt lat="43.45931" lon="6.44066">
        <ele>178</ele>
        <time>2022-09-30T14:24:04Z</time>
      </trkpt>
      <trkpt lat="43.45946" lon="6.44051">
        <ele>176</ele>
        <time>2022-09-30T14:24:29Z</time>
      </trkpt>
      <trkpt lat="43.45951" lon="6.4404">
        <ele>174</ele>
        <time>2022-09-30T14:24:40Z</time>
      </trkpt>
      <trkpt lat="43.45952" lon="6.44049">
        <ele>172</ele>
        <time>2022-09-30T14:25:13Z</time>
      </trkpt>
      <trkpt lat="43.4593" lon="6.44073">
        <ele>174</ele>
        <time>2022-09-30T14:25:43Z</time>
      </trkpt>
      <trkpt lat="43.45916" lon="6.44091">
        <ele>170</ele>
        <time>2022-09-30T14:26:04Z</time>
      </trkpt>
      <trkpt lat="43.45908" lon="6.44099">
        <ele>168</ele>
        <time>2022-09-30T14:26:14Z</time>
      </trkpt>
      <trkpt lat="43.45878" lon="6.44127">
        <ele>168</ele>
        <time>2022-09-30T14:26:52Z</time>
      </trkpt>
      <trkpt lat="43.4587" lon="6.44135">
        <ele>169</ele>
        <time>2022-09-30T14:27:01Z</time>
      </trkpt>
      <trkpt lat="43.45863" lon="6.44143">
        <ele>170</ele>
        <time>2022-09-30T14:27:11Z</time>
      </trkpt>
      <trkpt lat="43.45855" lon="6.4415">
        <ele>169</ele>
        <time>2022-09-30T14:27:21Z</time>
      </trkpt>
      <trkpt lat="43.45832" lon="6.44169">
        <ele>164</ele>
        <time>2022-09-30T14:27:55Z</time>
      </trkpt>
      <trkpt lat="43.45813" lon="6.44178">
        <ele>164</ele>
        <time>2022-09-30T14:28:19Z</time>
      </trkpt>
      <trkpt lat="43.45795" lon="6.44184">
        <ele>163</ele>
        <time>2022-09-30T14:28:42Z</time>
      </trkpt>
      <trkpt lat="43.45786" lon="6.44188">
        <ele>163</ele>
        <time>2022-09-30T14:28:54Z</time>
      </trkpt>
      <trkpt lat="43.45777" lon="6.44191">
        <ele>161</ele>
        <time>2022-09-30T14:29:07Z</time>
      </trkpt>
      <trkpt lat="43.45761" lon="6.44196">
        <ele>157</ele>
        <time>2022-09-30T14:29:32Z</time>
      </trkpt>
      <trkpt lat="43.45739" lon="6.44193">
        <ele>149</ele>
        <time>2022-09-30T14:30:02Z</time>
      </trkpt>
      <trkpt lat="43.45735" lon="6.44192">
        <ele>148</ele>
        <time>2022-09-30T14:30:07Z</time>
      </trkpt>
      <trkpt lat="43.45732" lon="6.44189">
        <ele>149</ele>
        <time>2022-09-30T14:30:12Z</time>
      </trkpt>
      <trkpt lat="43.45729" lon="6.44188">
        <ele>148</ele>
        <time>2022-09-30T14:30:18Z</time>
      </trkpt>
      <trkpt lat="43.45726" lon="6.44185">
        <ele>152</ele>
        <time>2022-09-30T14:30:55Z</time>
      </trkpt>
      <trkpt lat="43.45718" lon="6.44167">
        <ele>150</ele>
        <time>2022-09-30T14:31:13Z</time>
      </trkpt>
      <trkpt lat="43.45715" lon="6.44164">
        <ele>149</ele>
        <time>2022-09-30T14:31:18Z</time>
      </trkpt>
      <trkpt lat="43.45714" lon="6.44159">
        <ele>148</ele>
        <time>2022-09-30T14:31:23Z</time>
      </trkpt>
      <trkpt lat="43.45712" lon="6.44155">
        <ele>147</ele>
        <time>2022-09-30T14:31:27Z</time>
      </trkpt>
      <trkpt lat="43.45708" lon="6.44147">
        <ele>148</ele>
        <time>2022-09-30T14:31:35Z</time>
      </trkpt>
      <trkpt lat="43.45705" lon="6.44144">
        <ele>147</ele>
        <time>2022-09-30T14:31:39Z</time>
      </trkpt>
      <trkpt lat="43.457" lon="6.44136">
        <ele>147</ele>
        <time>2022-09-30T14:31:47Z</time>
      </trkpt>
      <trkpt lat="43.45694" lon="6.4413">
        <ele>146</ele>
        <time>2022-09-30T14:31:55Z</time>
      </trkpt>
      <trkpt lat="43.45691" lon="6.44127">
        <ele>147</ele>
        <time>2022-09-30T14:31:59Z</time>
      </trkpt>
      <trkpt lat="43.45689" lon="6.44123">
        <ele>147</ele>
        <time>2022-09-30T14:32:03Z</time>
      </trkpt>
      <trkpt lat="43.45686" lon="6.44118">
        <ele>147</ele>
        <time>2022-09-30T14:32:06Z</time>
      </trkpt>
      <trkpt lat="43.45682" lon="6.44114">
        <ele>149</ele>
        <time>2022-09-30T14:32:09Z</time>
      </trkpt>
      <trkpt lat="43.45676" lon="6.44106">
        <ele>151</ele>
        <time>2022-09-30T14:32:15Z</time>
      </trkpt>
      <trkpt lat="43.45666" lon="6.441">
        <ele>152</ele>
        <time>2022-09-30T14:32:29Z</time>
      </trkpt>
      <trkpt lat="43.45658" lon="6.44103">
        <ele>152</ele>
        <time>2022-09-30T14:32:38Z</time>
      </trkpt>
      <trkpt lat="43.45656" lon="6.44106">
        <ele>152</ele>
        <time>2022-09-30T14:32:43Z</time>
      </trkpt>
      <trkpt lat="43.45642" lon="6.44116">
        <ele>150</ele>
        <time>2022-09-30T14:33:02Z</time>
      </trkpt>
      <trkpt lat="43.45634" lon="6.44119">
        <ele>153</ele>
        <time>2022-09-30T14:33:10Z</time>
      </trkpt>
      <trkpt lat="43.45616" lon="6.44118">
        <ele>155</ele>
        <time>2022-09-30T14:33:29Z</time>
      </trkpt>
      <trkpt lat="43.45609" lon="6.44117">
        <ele>155</ele>
        <time>2022-09-30T14:33:37Z</time>
      </trkpt>
      <trkpt lat="43.45594" lon="6.44115">
        <ele>155</ele>
        <time>2022-09-30T14:33:56Z</time>
      </trkpt>
      <trkpt lat="43.45587" lon="6.44113">
        <ele>156</ele>
        <time>2022-09-30T14:34:04Z</time>
      </trkpt>
      <trkpt lat="43.45583" lon="6.44112">
        <ele>157</ele>
        <time>2022-09-30T14:34:08Z</time>
      </trkpt>
      <trkpt lat="43.4558" lon="6.44111">
        <ele>158</ele>
        <time>2022-09-30T14:34:11Z</time>
      </trkpt>
      <trkpt lat="43.45575" lon="6.44111">
        <ele>159</ele>
        <time>2022-09-30T14:34:15Z</time>
      </trkpt>
      <trkpt lat="43.45568" lon="6.44111">
        <ele>160</ele>
        <time>2022-09-30T14:34:25Z</time>
      </trkpt>
      <trkpt lat="43.45564" lon="6.44109">
        <ele>161</ele>
        <time>2022-09-30T14:34:30Z</time>
      </trkpt>
      <trkpt lat="43.45556" lon="6.4411">
        <ele>162</ele>
        <time>2022-09-30T14:34:38Z</time>
      </trkpt>
      <trkpt lat="43.45552" lon="6.44108">
        <ele>164</ele>
        <time>2022-09-30T14:34:42Z</time>
      </trkpt>
      <trkpt lat="43.45544" lon="6.44107">
        <ele>170</ele>
        <time>2022-09-30T14:34:50Z</time>
      </trkpt>
      <trkpt lat="43.45541" lon="6.4411">
        <ele>173</ele>
        <time>2022-09-30T14:34:55Z</time>
      </trkpt>
      <trkpt lat="43.45535" lon="6.44105">
        <ele>172</ele>
        <time>2022-09-30T14:35:05Z</time>
      </trkpt>
      <trkpt lat="43.45531" lon="6.44102">
        <ele>172</ele>
        <time>2022-09-30T14:35:11Z</time>
      </trkpt>
      <trkpt lat="43.45525" lon="6.44098">
        <ele>170</ele>
        <time>2022-09-30T14:35:21Z</time>
      </trkpt>
      <trkpt lat="43.45513" lon="6.44093">
        <ele>171</ele>
        <time>2022-09-30T14:35:33Z</time>
      </trkpt>
      <trkpt lat="43.4551" lon="6.44092">
        <ele>173</ele>
        <time>2022-09-30T14:35:36Z</time>
      </trkpt>
      <trkpt lat="43.45506" lon="6.4409">
        <ele>174</ele>
        <time>2022-09-30T14:35:39Z</time>
      </trkpt>
      <trkpt lat="43.45503" lon="6.44088">
        <ele>175</ele>
        <time>2022-09-30T14:35:43Z</time>
      </trkpt>
      <trkpt lat="43.45496" lon="6.44087">
        <ele>174</ele>
        <time>2022-09-30T14:35:53Z</time>
      </trkpt>
      <trkpt lat="43.45493" lon="6.44087">
        <ele>171</ele>
        <time>2022-09-30T14:35:58Z</time>
      </trkpt>
      <trkpt lat="43.45483" lon="6.44083">
        <ele>166</ele>
        <time>2022-09-30T14:36:11Z</time>
      </trkpt>
      <trkpt lat="43.45463" lon="6.44072">
        <ele>164</ele>
        <time>2022-09-30T14:36:34Z</time>
      </trkpt>
      <trkpt lat="43.45459" lon="6.4407">
        <ele>164</ele>
        <time>2022-09-30T14:36:38Z</time>
      </trkpt>
      <trkpt lat="43.45456" lon="6.44069">
        <ele>164</ele>
        <time>2022-09-30T14:36:42Z</time>
      </trkpt>
      <trkpt lat="43.45452" lon="6.44066">
        <ele>163</ele>
        <time>2022-09-30T14:36:47Z</time>
      </trkpt>
      <trkpt lat="43.45435" lon="6.44057">
        <ele>159</ele>
        <time>2022-09-30T14:37:07Z</time>
      </trkpt>
      <trkpt lat="43.45428" lon="6.44053">
        <ele>159</ele>
        <time>2022-09-30T14:37:13Z</time>
      </trkpt>
      <trkpt lat="43.45419" lon="6.44042">
        <ele>161</ele>
        <time>2022-09-30T14:37:25Z</time>
      </trkpt>
      <trkpt lat="43.45415" lon="6.44033">
        <ele>160</ele>
        <time>2022-09-30T14:37:33Z</time>
      </trkpt>
      <trkpt lat="43.45411" lon="6.44023">
        <ele>161</ele>
        <time>2022-09-30T14:37:41Z</time>
      </trkpt>
      <trkpt lat="43.45403" lon="6.43998">
        <ele>158</ele>
        <time>2022-09-30T14:38:02Z</time>
      </trkpt>
      <trkpt lat="43.45398" lon="6.43989">
        <ele>159</ele>
        <time>2022-09-30T14:38:09Z</time>
      </trkpt>
      <trkpt lat="43.45394" lon="6.43977">
        <ele>157</ele>
        <time>2022-09-30T14:38:18Z</time>
      </trkpt>
      <trkpt lat="43.45382" lon="6.43958">
        <ele>157</ele>
        <time>2022-09-30T14:38:35Z</time>
      </trkpt>
      <trkpt lat="43.45375" lon="6.43948">
        <ele>160</ele>
        <time>2022-09-30T14:38:43Z</time>
      </trkpt>
      <trkpt lat="43.45363" lon="6.43927">
        <ele>163</ele>
        <time>2022-09-30T14:39:00Z</time>
      </trkpt>
      <trkpt lat="43.4535" lon="6.43905">
        <ele>161</ele>
        <time>2022-09-30T14:39:20Z</time>
      </trkpt>
      <trkpt lat="43.45335" lon="6.43873">
        <ele>159</ele>
        <time>2022-09-30T14:39:48Z</time>
      </trkpt>
      <trkpt lat="43.45325" lon="6.4385">
        <ele>156</ele>
        <time>2022-09-30T14:40:08Z</time>
      </trkpt>
      <trkpt lat="43.45321" lon="6.43825">
        <ele>153</ele>
        <time>2022-09-30T14:40:26Z</time>
      </trkpt>
      <trkpt lat="43.4532" lon="6.43813">
        <ele>151</ele>
        <time>2022-09-30T14:40:36Z</time>
      </trkpt>
      <trkpt lat="43.45323" lon="6.43788">
        <ele>148</ele>
        <time>2022-09-30T14:40:55Z</time>
      </trkpt>
      <trkpt lat="43.45325" lon="6.43776">
        <ele>147</ele>
        <time>2022-09-30T14:41:04Z</time>
      </trkpt>
      <trkpt lat="43.45331" lon="6.43738">
        <ele>151</ele>
        <time>2022-09-30T14:41:30Z</time>
      </trkpt>
      <trkpt lat="43.45331" lon="6.43725">
        <ele>153</ele>
        <time>2022-09-30T14:41:39Z</time>
      </trkpt>
      <trkpt lat="43.4534" lon="6.43675">
        <ele>153</ele>
        <time>2022-09-30T14:42:18Z</time>
      </trkpt>
      <trkpt lat="43.45343" lon="6.43662">
        <ele>152</ele>
        <time>2022-09-30T14:42:28Z</time>
      </trkpt>
      <trkpt lat="43.45344" lon="6.43653">
        <ele>151</ele>
        <time>2022-09-30T14:42:35Z</time>
      </trkpt>
      <trkpt lat="43.45345" lon="6.43648">
        <ele>151</ele>
        <time>2022-09-30T14:42:39Z</time>
      </trkpt>
      <trkpt lat="43.45345" lon="6.43643">
        <ele>151</ele>
        <time>2022-09-30T14:42:43Z</time>
      </trkpt>
      <trkpt lat="43.45345" lon="6.43631">
        <ele>150</ele>
        <time>2022-09-30T14:42:52Z</time>
      </trkpt>
      <trkpt lat="43.45345" lon="6.43626">
        <ele>150</ele>
        <time>2022-09-30T14:42:56Z</time>
      </trkpt>
      <trkpt lat="43.45343" lon="6.43618">
        <ele>151</ele>
        <time>2022-09-30T14:42:57Z</time>
      </trkpt>
      <trkpt lat="43.45348" lon="6.43604">
        <ele>159</ele>
        <time>2022-09-30T14:43:09Z</time>
      </trkpt>
      <trkpt lat="43.45349" lon="6.43594">
        <ele>162</ele>
        <time>2022-09-30T14:43:16Z</time>
      </trkpt>
      <trkpt lat="43.45349" lon="6.43589">
        <ele>162</ele>
        <time>2022-09-30T14:43:20Z</time>
      </trkpt>
      <trkpt lat="43.4535" lon="6.43584">
        <ele>161</ele>
        <time>2022-09-30T14:43:24Z</time>
      </trkpt>
      <trkpt lat="43.45349" lon="6.43555">
        <ele>163</ele>
        <time>2022-09-30T14:43:43Z</time>
      </trkpt>
      <trkpt lat="43.45347" lon="6.4355">
        <ele>164</ele>
        <time>2022-09-30T14:43:46Z</time>
      </trkpt>
      <trkpt lat="43.45346" lon="6.43539">
        <ele>166</ele>
        <time>2022-09-30T14:43:53Z</time>
      </trkpt>
      <trkpt lat="43.45345" lon="6.43535">
        <ele>167</ele>
        <time>2022-09-30T14:43:56Z</time>
      </trkpt>
      <trkpt lat="43.45344" lon="6.4353">
        <ele>168</ele>
        <time>2022-09-30T14:43:59Z</time>
      </trkpt>
      <trkpt lat="43.45343" lon="6.43525">
        <ele>168</ele>
        <time>2022-09-30T14:44:03Z</time>
      </trkpt>
      <trkpt lat="43.45342" lon="6.4352">
        <ele>169</ele>
        <time>2022-09-30T14:44:06Z</time>
      </trkpt>
      <trkpt lat="43.45339" lon="6.43504">
        <ele>167</ele>
        <time>2022-09-30T14:44:19Z</time>
      </trkpt>
      <trkpt lat="43.45338" lon="6.435">
        <ele>166</ele>
        <time>2022-09-30T14:44:23Z</time>
      </trkpt>
      <trkpt lat="43.45332" lon="6.43469">
        <ele>165</ele>
        <time>2022-09-30T14:44:48Z</time>
      </trkpt>
      <trkpt lat="43.4533" lon="6.4346">
        <ele>165</ele>
        <time>2022-09-30T14:44:56Z</time>
      </trkpt>
      <trkpt lat="43.45327" lon="6.43459">
        <ele>166</ele>
        <time>2022-09-30T14:45:00Z</time>
      </trkpt>
      <trkpt lat="43.45324" lon="6.43461">
        <ele>166</ele>
        <time>2022-09-30T14:47:26Z</time>
      </trkpt>
    </trkseg>
  </trk>
</gpx>